createdAt,value
2019-01-08T00:02:22.742Z,1.76
2019-01-08T00:05:13.272Z,1.73
2019-01-08T00:08:03.877Z,1.84
2019-01-08T00:10:54.383Z,1.81
2019-01-08T00:13:45.016Z,1.79
2019-01-08T00:16:36.046Z,1.69
2019-01-08T00:19:26.828Z,1.67
2019-01-08T00:22:17.355Z,1.74
2019-01-08T00:25:07.803Z,1.56
2019-01-08T00:28:01.030Z,1.67
2019-01-08T00:30:51.395Z,1.68
2019-01-08T00:33:42.216Z,1.72
2019-01-08T00:36:32.501Z,1.74
2019-01-08T00:39:23.037Z,1.72
2019-01-08T00:42:13.682Z,1.74
2019-01-08T00:45:04.231Z,1.70
2019-01-08T00:47:54.835Z,1.68
2019-01-08T00:50:45.168Z,1.64
2019-01-08T00:53:36.099Z,1.64
2019-01-08T00:56:26.577Z,1.66
2019-01-08T00:59:18.367Z,1.68
2019-01-08T01:02:08.870Z,1.64
2019-01-08T01:04:59.861Z,1.68
2019-01-08T01:07:50.552Z,1.69
2019-01-08T01:10:40.946Z,1.70
2019-01-08T01:13:31.272Z,1.72
2019-01-08T01:16:21.623Z,1.73
2019-01-08T01:19:11.966Z,1.74
2019-01-08T01:22:02.324Z,1.74
2019-01-08T01:24:52.768Z,1.72
2019-01-08T01:27:43.648Z,1.76
2019-01-08T01:30:34.496Z,1.69
2019-01-08T01:33:25.213Z,1.68
2019-01-08T01:36:15.645Z,1.75
2019-01-08T01:39:07.011Z,1.72
2019-01-08T01:41:57.715Z,1.74
2019-01-08T01:44:48.355Z,1.79
2019-01-08T01:47:39.012Z,1.71
2019-01-08T01:50:29.495Z,1.76
2019-01-08T01:53:19.818Z,1.74
2019-01-08T01:56:11.174Z,1.73
2019-01-08T01:59:08.281Z,1.74
2019-01-08T02:01:54.266Z,1.67
2019-01-08T02:04:44.646Z,1.70
2019-01-08T02:07:35.387Z,1.66
2019-01-08T02:10:25.776Z,1.66
2019-01-08T02:13:16.898Z,1.66
2019-01-08T02:16:07.479Z,1.72
2019-01-08T02:18:58.141Z,1.67
2019-01-08T02:21:48.908Z,1.63
2019-01-08T02:24:39.452Z,1.68
2019-01-08T02:27:29.985Z,1.65
2019-01-08T02:30:20.762Z,1.67
2019-01-08T02:33:11.154Z,1.66
2019-01-08T02:36:01.813Z,1.64
2019-01-08T02:38:52.068Z,1.60
2019-01-08T02:41:42.481Z,1.64
2019-01-08T02:44:33.166Z,1.59
2019-01-08T02:47:25.737Z,1.62
2019-01-08T02:50:16.370Z,1.62
2019-01-08T02:53:06.910Z,1.61
2019-01-08T02:55:57.302Z,1.60
2019-01-08T02:58:47.855Z,1.59
2019-01-08T03:01:38.365Z,1.54
2019-01-08T03:04:28.968Z,1.58
2019-01-08T03:07:19.542Z,1.53
2019-01-08T03:10:10.278Z,1.52
2019-01-08T03:13:00.631Z,1.55
2019-01-08T03:15:50.927Z,1.48
2019-01-08T03:18:41.557Z,1.53
2019-01-08T03:21:32.001Z,1.52
2019-01-08T03:24:22.783Z,1.61
2019-01-08T03:27:13.174Z,1.64
2019-01-08T03:30:03.897Z,1.54
2019-01-08T03:32:54.344Z,1.53
2019-01-08T03:35:44.571Z,1.44
2019-01-08T03:38:35.231Z,1.35
2019-01-08T03:41:25.805Z,1.19
2019-01-08T03:44:16.363Z,1.07
2019-01-08T03:47:07.154Z,1.09
2019-01-08T03:49:57.701Z,1.11
2019-01-08T03:52:48.325Z,1.04
2019-01-08T03:55:39.024Z,1.02
2019-01-08T03:58:29.686Z,1.04
2019-01-08T04:01:20.659Z,0.92
2019-01-08T04:04:12.467Z,0.90
2019-01-08T04:07:03.292Z,0.87
2019-01-08T04:09:53.804Z,0.82
2019-01-08T04:12:44.242Z,0.78
2019-01-08T04:15:34.491Z,0.70
2019-01-08T04:18:27.015Z,0.66
2019-01-08T04:21:17.438Z,0.60
2019-01-08T04:24:08.065Z,0.64
2019-01-08T04:26:58.791Z,0.56
2019-01-08T04:29:50.567Z,0.50
2019-01-08T04:32:41.813Z,0.40
2019-01-08T04:35:32.211Z,0.35
2019-01-08T04:38:22.807Z,0.39
2019-01-08T04:41:13.525Z,0.26
2019-01-08T04:44:03.919Z,0.23
2019-01-08T04:46:54.624Z,0.17
2019-01-08T04:49:45.367Z,0.14
2019-01-08T04:52:36.038Z,0.15
2019-01-08T04:55:26.192Z,0.09
2019-01-08T04:58:16.827Z,0.15
2019-01-08T05:01:07.395Z,0.12
2019-01-08T05:03:58.157Z,0.11
2019-01-08T05:06:48.728Z,0.06
2019-01-08T05:09:39.460Z,0.13
2019-01-08T05:12:29.807Z,0.08
2019-01-08T05:15:20.385Z,0.03
2019-01-08T05:18:11.073Z,0.00
2019-01-08T05:21:02.007Z,-0.01
2019-01-08T05:23:52.622Z,-0.05
2019-01-08T05:26:43.295Z,-0.14
2019-01-08T05:29:33.869Z,-0.10
2019-01-08T05:32:24.084Z,-0.16
2019-01-08T05:35:14.571Z,-0.20
2019-01-08T05:38:05.392Z,-0.17
2019-01-08T05:40:56.051Z,-0.16
2019-01-08T05:43:46.211Z,-0.19
2019-01-08T05:46:36.783Z,-0.11
2019-01-08T05:49:27.449Z,-0.04
2019-01-08T05:52:18.081Z,-0.11
2019-01-08T05:55:09.035Z,-0.10
2019-01-08T05:57:59.747Z,-0.13
2019-01-08T06:00:51.206Z,-0.17
2019-01-08T06:03:41.793Z,-0.12
2019-01-08T06:06:32.509Z,-0.05
2019-01-08T06:09:23.020Z,-0.15
2019-01-08T06:12:13.571Z,-0.16
2019-01-08T06:15:03.814Z,-0.17
2019-01-08T06:17:54.321Z,-0.19
2019-01-08T06:20:44.607Z,-0.13
2019-01-08T06:23:35.001Z,-0.03
2019-01-08T06:26:25.367Z,0.01
2019-01-08T06:29:16.056Z,0.22
2019-01-08T06:32:06.793Z,0.47
2019-01-08T06:35:00.480Z,0.92
2019-01-08T06:37:51.327Z,1.69
2019-01-08T06:40:42.096Z,2.34
2019-01-08T06:43:32.796Z,2.80
2019-01-08T06:46:23.386Z,3.39
2019-01-08T06:49:13.846Z,3.70
2019-01-08T06:52:04.458Z,3.96
2019-01-08T06:54:54.659Z,4.31
2019-01-08T06:57:45.378Z,4.94
2019-01-08T07:00:35.508Z,5.67
2019-01-08T07:03:26.281Z,5.80
2019-01-08T07:06:16.915Z,6.54
2019-01-08T07:09:08.395Z,6.44
2019-01-08T07:11:58.725Z,6.87
2019-01-08T07:14:49.596Z,7.31
2019-01-08T07:17:40.046Z,7.95
2019-01-08T07:20:30.408Z,8.04
2019-01-08T07:23:20.737Z,9.21
2019-01-08T07:26:11.443Z,9.27
2019-01-08T07:29:01.881Z,9.97
2019-01-08T07:31:52.713Z,10.16
2019-01-08T07:34:43.173Z,10.53
2019-01-08T07:37:33.798Z,10.44
2019-01-08T07:40:24.254Z,10.23
2019-01-08T07:43:14.924Z,10.87
2019-01-08T07:46:05.372Z,10.41
2019-01-08T07:48:55.715Z,10.31
2019-01-08T07:51:46.275Z,10.93
2019-01-08T07:54:37.029Z,11.64
2019-01-08T07:57:27.415Z,11.50
2019-01-08T08:00:18.046Z,12.19
2019-01-08T08:03:08.653Z,10.83
2019-01-08T08:05:59.172Z,11.19
2019-01-08T08:08:49.599Z,11.59
2019-01-08T08:11:40.285Z,12.42
2019-01-08T08:14:30.964Z,12.72
2019-01-08T08:17:23.161Z,12.64
2019-01-08T08:20:13.535Z,13.74
2019-01-08T08:23:03.974Z,12.21
2019-01-08T08:25:54.529Z,13.12
2019-01-08T08:28:45.353Z,13.85
2019-01-08T08:31:36.052Z,13.66
2019-01-08T08:34:26.461Z,14.20
2019-01-08T08:37:16.891Z,14.61
2019-01-08T08:40:08.308Z,15.10
2019-01-08T08:42:58.639Z,15.78
2019-01-08T08:45:49.339Z,16.04
2019-01-08T08:48:39.695Z,14.05
2019-01-08T08:51:30.544Z,12.90
2019-01-08T08:54:21.099Z,11.03
2019-01-08T08:57:11.437Z,10.14
2019-01-08T09:00:02.149Z,9.10
2019-01-08T09:02:52.758Z,8.68
2019-01-08T09:05:43.594Z,8.23
2019-01-08T09:08:34.546Z,7.39
2019-01-08T09:11:25.345Z,6.83
2019-01-08T09:14:18.811Z,6.61
2019-01-08T09:17:08.967Z,6.43
2019-01-08T09:19:59.382Z,6.63
2019-01-08T09:22:50.001Z,7.40
2019-01-08T09:25:40.780Z,8.13
2019-01-08T09:28:31.209Z,8.82
2019-01-08T09:31:21.895Z,9.97
2019-01-08T09:34:12.420Z,10.27
2019-01-08T09:37:03.018Z,9.73
2019-01-08T09:39:53.791Z,8.95
2019-01-08T09:42:44.661Z,8.31
2019-01-08T09:45:35.250Z,7.89
2019-01-08T09:48:25.849Z,7.51
2019-01-08T09:51:16.142Z,7.13
2019-01-08T09:54:06.868Z,6.96
2019-01-08T09:56:57.364Z,6.29
2019-01-08T09:59:48.152Z,5.82
2019-01-08T10:02:38.331Z,5.95
2019-01-08T10:05:28.824Z,5.90
2019-01-08T10:08:19.103Z,5.23
2019-01-08T10:11:18.027Z,5.11
2019-01-08T10:14:18.299Z,5.32
2019-01-08T10:17:14.399Z,5.34
2019-01-08T10:20:06.366Z,5.37
2019-01-08T10:22:57.247Z,5.32
2019-01-08T10:25:50.121Z,5.37
2019-01-08T10:28:40.866Z,5.40
2019-01-08T10:31:32.548Z,5.40
2019-01-08T10:34:24.049Z,5.27
2019-01-08T10:37:14.601Z,4.97
2019-01-08T10:40:05.388Z,4.93
2019-01-08T10:42:55.641Z,4.65
2019-01-08T10:45:46.442Z,4.42
2019-01-08T10:48:37.104Z,4.47
2019-01-08T10:51:27.945Z,4.45
2019-01-08T10:54:18.805Z,4.53
2019-01-08T10:57:12.369Z,4.56
2019-01-08T11:00:03.891Z,4.51
2019-01-08T11:02:54.793Z,4.70
2019-01-08T11:05:45.534Z,4.75
2019-01-08T11:08:35.707Z,4.86
2019-01-08T11:11:26.591Z,4.83
2019-01-08T11:14:17.242Z,4.71
2019-01-08T11:17:07.573Z,4.62
2019-01-08T11:19:59.353Z,4.48
2019-01-08T11:22:49.910Z,4.63
2019-01-08T11:25:40.524Z,4.75
2019-01-08T11:28:31.057Z,4.72
2019-01-08T11:31:21.748Z,4.68
2019-01-08T11:34:12.496Z,4.51
2019-01-08T11:37:03.221Z,4.49
2019-01-08T11:39:54.398Z,4.45
2019-01-08T11:42:44.961Z,4.34
2019-01-08T11:45:35.363Z,4.21
2019-01-08T11:48:25.926Z,4.21
2019-01-08T11:51:16.210Z,4.29
2019-01-08T11:54:08.267Z,4.30
2019-01-08T11:56:58.949Z,4.28
2019-01-08T11:59:49.591Z,4.18
2019-01-08T12:02:47.774Z,4.19
2019-01-08T12:05:33.345Z,4.20
2019-01-08T12:08:24.153Z,3.87
2019-01-08T12:11:14.864Z,4.02
2019-01-08T12:14:05.469Z,3.80
2019-01-08T12:16:56.017Z,3.75
2019-01-08T12:19:46.724Z,3.91
2019-01-08T12:22:40.952Z,3.98
2019-01-08T12:25:29.640Z,3.74
2019-01-08T12:28:20.623Z,3.57
2019-01-08T12:31:11.474Z,3.53
2019-01-08T12:34:02.353Z,3.64
2019-01-08T12:36:53.973Z,3.66
2019-01-08T12:39:44.804Z,3.77
2019-01-08T12:42:35.334Z,3.45
2019-01-08T12:45:25.658Z,3.40
2019-01-08T12:48:16.523Z,3.56
2019-01-08T12:51:07.022Z,3.45
2019-01-08T12:53:57.674Z,3.40
2019-01-08T12:56:48.544Z,3.43
2019-01-08T12:59:40.737Z,3.49
2019-01-08T13:02:31.638Z,3.43
2019-01-08T13:05:22.282Z,3.52
2019-01-08T13:08:13.240Z,3.46
2019-01-08T13:11:03.785Z,3.51
2019-01-08T13:13:56.399Z,3.40
2019-01-08T13:16:47.312Z,3.44
2019-01-08T13:19:38.113Z,3.37
2019-01-08T13:22:29.089Z,3.38
2019-01-08T13:25:19.587Z,3.40
2019-01-08T13:28:10.289Z,3.46
2019-01-08T13:31:00.827Z,3.47
2019-01-08T13:33:51.329Z,3.42
2019-01-08T13:36:42.147Z,3.38
2019-01-08T13:39:32.541Z,3.43
2019-01-08T13:42:23.419Z,3.40
2019-01-08T13:45:13.927Z,3.30
2019-01-08T13:48:04.953Z,3.22
2019-01-08T13:50:55.474Z,3.15
2019-01-08T13:53:46.133Z,3.18
2019-01-08T13:56:36.958Z,3.29
2019-01-08T13:59:27.470Z,3.18
2019-01-08T14:02:18.327Z,3.11
2019-01-08T14:05:08.746Z,3.11
2019-01-08T14:07:59.123Z,3.01
2019-01-08T14:10:56.397Z,3.02
2019-01-08T14:13:41.790Z,2.95
2019-01-08T14:16:32.142Z,2.97
2019-01-08T14:19:23.018Z,2.95
2019-01-08T14:22:13.426Z,2.96
2019-01-08T14:25:04.020Z,2.95
2019-01-08T14:27:54.736Z,2.85
2019-01-08T14:30:45.507Z,2.87
2019-01-08T14:33:37.230Z,2.86
2019-01-08T14:36:27.904Z,2.81
2019-01-08T14:39:18.617Z,2.77
2019-01-08T14:42:09.135Z,2.76
2019-01-08T14:44:59.739Z,2.81
2019-01-08T14:47:50.113Z,2.62
2019-01-08T14:50:40.602Z,2.51
2019-01-08T14:53:30.803Z,2.54
2019-01-08T14:56:21.157Z,2.55
2019-01-08T14:59:11.543Z,2.23
2019-01-08T15:02:04.935Z,2.44
2019-01-08T15:04:55.443Z,2.38
2019-01-08T15:07:45.797Z,2.33
2019-01-08T15:10:36.030Z,2.22
2019-01-08T15:13:26.973Z,2.16
2019-01-08T15:16:17.673Z,2.18
2019-01-08T15:19:08.505Z,1.99
2019-01-08T15:21:59.389Z,1.85
2019-01-08T15:24:50.001Z,1.87
2019-01-08T15:27:40.405Z,1.78
2019-01-08T15:30:30.995Z,1.78
2019-01-08T15:33:21.545Z,1.77
2019-01-08T15:36:12.296Z,1.82
2019-01-08T15:39:03.267Z,1.77
2019-01-08T15:41:54.861Z,1.69
2019-01-08T15:44:48.458Z,1.64
2019-01-08T15:47:38.609Z,1.56
2019-01-08T15:50:28.852Z,1.55
2019-01-08T15:53:20.492Z,1.51
2019-01-08T15:56:11.045Z,1.53
2019-01-08T15:59:01.867Z,1.55
2019-01-08T16:01:52.666Z,1.49
2019-01-08T16:04:43.169Z,1.50
2019-01-08T16:07:33.896Z,1.42
2019-01-08T16:10:24.596Z,1.28
2019-01-08T16:13:15.341Z,1.27
2019-01-08T16:16:05.986Z,1.23
2019-01-08T16:18:56.414Z,1.23
2019-01-08T16:21:47.175Z,1.17
2019-01-08T16:24:37.779Z,1.21
2019-01-08T16:27:28.321Z,1.19
2019-01-08T16:30:20.127Z,1.18
2019-01-08T16:33:15.917Z,1.10
2019-01-08T16:36:02.992Z,1.09
2019-01-08T16:38:53.244Z,1.09
2019-01-08T16:41:43.910Z,1.08
2019-01-08T16:44:35.641Z,0.93
2019-01-08T16:47:26.409Z,1.09
2019-01-08T16:50:16.814Z,1.06
2019-01-08T16:53:09.571Z,1.08
2019-01-08T16:56:00.079Z,1.09
2019-01-08T16:58:50.192Z,1.07
2019-01-08T17:01:40.755Z,1.02
2019-01-08T17:04:31.427Z,1.03
2019-01-08T17:07:22.242Z,1.03
2019-01-08T17:10:13.830Z,1.00
2019-01-08T17:13:05.285Z,1.07
2019-01-08T17:15:56.302Z,1.01
2019-01-08T17:18:47.259Z,1.01
2019-01-08T17:21:37.515Z,1.06
2019-01-08T17:24:28.134Z,1.03
2019-01-08T17:27:20.177Z,0.98
2019-01-08T17:30:11.987Z,1.01
2019-01-08T17:33:02.560Z,0.98
2019-01-08T17:35:53.132Z,0.98
2019-01-08T17:38:43.498Z,1.04
2019-01-08T17:41:34.477Z,0.96
2019-01-08T17:44:24.856Z,0.96
2019-01-08T17:47:15.603Z,1.03
2019-01-08T17:50:07.531Z,1.07
2019-01-08T17:52:58.249Z,1.07
2019-01-08T17:55:49.159Z,1.07
2019-01-08T17:58:42.067Z,0.92
2019-01-08T18:01:34.762Z,0.96
2019-01-08T18:04:25.651Z,0.99
2019-01-08T18:07:15.968Z,0.96
2019-01-08T18:10:08.177Z,1.03
2019-01-08T18:12:58.884Z,0.96
2019-01-08T18:15:49.466Z,1.00
2019-01-08T18:18:40.180Z,0.84
2019-01-08T18:21:30.466Z,0.86
2019-01-08T18:24:20.873Z,0.85
2019-01-08T18:27:11.482Z,0.86
2019-01-08T18:30:06.195Z,0.86
2019-01-08T18:32:57.451Z,0.88
2019-01-08T18:35:48.341Z,0.85
2019-01-08T18:38:39.207Z,0.85
2019-01-08T18:41:29.911Z,0.89
2019-01-08T18:44:20.674Z,0.80
2019-01-08T18:47:11.274Z,0.87
2019-01-08T18:50:01.653Z,0.77
2019-01-08T18:52:52.060Z,0.78
2019-01-08T18:55:42.627Z,0.73
2019-01-08T18:58:32.934Z,0.73
2019-01-08T19:01:23.574Z,0.71
2019-01-08T19:04:13.824Z,0.80
2019-01-08T19:07:04.504Z,0.81
2019-01-08T19:10:00.492Z,0.87
2019-01-08T19:12:51.173Z,0.81
2019-01-08T19:15:41.805Z,0.83
2019-01-08T19:18:32.484Z,0.79
2019-01-08T19:21:22.740Z,0.82
2019-01-08T19:24:13.453Z,0.82
2019-01-08T19:27:04.005Z,0.82
2019-01-08T19:29:54.834Z,0.82
2019-01-08T19:32:47.504Z,0.86
2019-01-08T19:35:38.160Z,0.89
2019-01-08T19:38:32.442Z,0.94
2019-01-08T19:41:23.362Z,0.92
2019-01-08T19:44:14.089Z,1.02
2019-01-08T19:47:04.850Z,1.02
2019-01-08T19:49:55.492Z,0.98
2019-01-08T19:52:47.881Z,0.99
2019-01-08T19:55:38.110Z,1.10
2019-01-08T19:58:29.706Z,1.15
2019-01-08T20:01:20.538Z,1.18
2019-01-08T20:04:17.659Z,1.17
2019-01-08T20:07:03.432Z,1.29
2019-01-08T20:09:57.102Z,1.23
2019-01-08T20:12:47.647Z,1.28
2019-01-08T20:15:39.010Z,1.21
2019-01-08T20:18:29.387Z,1.25
2019-01-08T20:21:20.314Z,1.26
2019-01-08T20:24:10.756Z,1.27
2019-01-08T20:27:02.529Z,1.35
2019-01-08T20:29:52.996Z,1.31
2019-01-08T20:32:43.913Z,1.34
2019-01-08T20:35:34.456Z,1.28
2019-01-08T20:38:25.502Z,1.23
2019-01-08T20:41:18.791Z,1.23
2019-01-08T20:44:09.883Z,1.14
2019-01-08T20:47:00.317Z,1.06
2019-01-08T20:49:50.913Z,1.14
2019-01-08T20:52:42.621Z,1.20
2019-01-08T20:55:32.910Z,1.18
2019-01-08T20:58:28.668Z,1.29
2019-01-08T21:01:15.438Z,1.26
2019-01-08T21:04:05.772Z,1.19
2019-01-08T21:06:56.654Z,1.12
2019-01-08T21:09:47.270Z,1.04
2019-01-08T21:12:38.110Z,1.03
2019-01-08T21:15:28.513Z,1.02
2019-01-08T21:18:19.059Z,1.07
2019-01-08T21:21:10.663Z,1.07
2019-01-08T21:24:01.505Z,1.03
2019-01-08T21:26:51.973Z,1.03
2019-01-08T21:29:43.014Z,1.04
2019-01-08T21:32:33.872Z,1.11
2019-01-08T21:35:24.298Z,1.11
2019-01-08T21:38:14.735Z,1.05
2019-01-08T21:41:05.318Z,1.08
2019-01-08T21:43:55.545Z,1.14
2019-01-08T21:46:46.282Z,1.15
2019-01-08T21:49:36.919Z,1.08
2019-01-08T21:52:28.164Z,1.21
2019-01-08T21:55:18.992Z,1.09
2019-01-08T21:58:09.550Z,1.09
2019-01-08T22:01:00.144Z,1.06
2019-01-08T22:03:50.967Z,0.95
2019-01-08T22:06:41.442Z,0.94
2019-01-08T22:09:32.482Z,0.89
2019-01-08T22:12:23.055Z,1.01
2019-01-08T22:15:14.955Z,0.99
2019-01-08T22:18:05.210Z,0.97
2019-01-08T22:20:55.772Z,1.03
2019-01-08T22:23:46.612Z,0.98
2019-01-08T22:26:37.620Z,1.01
2019-01-08T22:29:28.337Z,0.93
2019-01-08T22:32:18.535Z,0.95
2019-01-08T22:35:09.207Z,0.90
2019-01-08T22:37:59.599Z,0.93
2019-01-08T22:40:50.087Z,1.00
2019-01-08T22:43:41.223Z,1.00
2019-01-08T22:46:33.958Z,1.10
2019-01-08T22:49:24.295Z,1.02
2019-01-08T22:52:17.659Z,1.00
2019-01-08T22:55:08.257Z,1.04
2019-01-08T22:57:58.877Z,1.07
2019-01-08T23:01:14.116Z,1.05
2019-01-08T23:04:06.596Z,1.05
2019-01-08T23:06:57.314Z,0.97
2019-01-08T23:09:48.779Z,0.95
2019-01-08T23:12:39.212Z,0.94
2019-01-08T23:15:29.932Z,0.81
2019-01-08T23:18:20.666Z,1.01
2019-01-08T23:21:12.713Z,1.06
2019-01-08T23:24:03.491Z,1.10
2019-01-08T23:26:53.875Z,1.18
2019-01-08T23:29:44.837Z,1.21
2019-01-08T23:32:35.682Z,1.23
2019-01-08T23:35:26.440Z,1.28
2019-01-08T23:38:16.919Z,1.33
2019-01-08T23:41:07.436Z,1.32
2019-01-08T23:43:57.838Z,1.31
2019-01-08T23:46:48.392Z,1.28
2019-01-08T23:49:38.629Z,1.18
2019-01-08T23:52:35.268Z,1.27
2019-01-08T23:55:25.895Z,1.16
2019-01-08T23:58:16.678Z,1.29
